sensor_id;sensor_type;location;lat;lon;timestamp;temperature;humidity
31379;DHT22;61664;48.112;11.662;2023-04-19T00:00:03;12.50;78.90
31379;DHT22;61664;48.112;11.662;2023-04-19T00:02:34;12.50;78.70
31379;DHT22;61664;48.112;11.662;2023-04-19T00:05:01;12.60;79.10
31379;DHT22;61664;48.112;11.662;2023-04-19T00:07:28;12.50;79.00
31379;DHT22;61664;48.112;11.662;2023-04-19T00:09:55;12.50;78.90
31379;DHT22;61664;48.112;11.662;2023-04-19T00:12:22;12.50;78.90
31379;DHT22;61664;48.112;11.662;2023-04-19T00:14:49;12.50;79.00
31379;DHT22;61664;48.112;11.662;2023-04-19T00:17:16;12.50;79.00
31379;DHT22;61664;48.112;11.662;2023-04-19T00:19:43;12.50;79.00
31379;DHT22;61664;48.112;11.662;2023-04-19T00:22:10;12.60;79.00
31379;DHT22;61664;48.112;11.662;2023-04-19T00:24:37;12.50;78.80
31379;DHT22;61664;48.112;11.662;2023-04-19T00:27:04;12.40;78.90
31379;DHT22;61664;48.112;11.662;2023-04-19T00:29:31;12.50;79.00
31379;DHT22;61664;48.112;11.662;2023-04-19T00:31:58;12.40;78.90
31379;DHT22;61664;48.112;11.662;2023-04-19T00:34:24;12.50;78.80
31379;DHT22;61664;48.112;11.662;2023-04-19T00:36:51;12.50;78.70
31379;DHT22;61664;48.112;11.662;2023-04-19T00:39:18;12.40;78.70
31379;DHT22;61664;48.112;11.662;2023-04-19T00:41:45;12.40;78.80
31379;DHT22;61664;48.112;11.662;2023-04-19T00:44:12;12.40;78.80
31379;DHT22;61664;48.112;11.662;2023-04-19T00:46:42;12.40;78.90
31379;DHT22;61664;48.112;11.662;2023-04-19T00:49:09;12.40;78.90
31379;DHT22;61664;48.112;11.662;2023-04-19T00:51:37;12.40;79.00
31379;DHT22;61664;48.112;11.662;2023-04-19T00:54:04;12.40;79.10
31379;DHT22;61664;48.112;11.662;2023-04-19T00:56:33;12.40;78.90
31379;DHT22;61664;48.112;11.662;2023-04-19T00:59:01;12.30;78.90
31379;DHT22;61664;48.112;11.662;2023-04-19T01:01:28;12.30;78.90
31379;DHT22;61664;48.112;11.662;2023-04-19T01:03:55;12.30;78.90
31379;DHT22;61664;48.112;11.662;2023-04-19T01:06:23;12.30;79.00
31379;DHT22;61664;48.112;11.662;2023-04-19T01:08:49;12.30;79.00
31379;DHT22;61664;48.112;11.662;2023-04-19T01:11:16;12.30;79.10
31379;DHT22;61664;48.112;11.662;2023-04-19T01:13:43;12.30;79.60
31379;DHT22;61664;48.112;11.662;2023-04-19T01:16:10;12.30;79.10
31379;DHT22;61664;48.112;11.662;2023-04-19T01:18:37;12.30;79.00
31379;DHT22;61664;48.112;11.662;2023-04-19T01:21:06;12.30;79.00
31379;DHT22;61664;48.112;11.662;2023-04-19T01:23:35;12.30;79.00
31379;DHT22;61664;48.112;11.662;2023-04-19T01:26:02;12.30;79.00
31379;DHT22;61664;48.112;11.662;2023-04-19T01:28:29;12.30;79.00
31379;DHT22;61664;48.112;11.662;2023-04-19T01:30:55;12.30;79.10
31379;DHT22;61664;48.112;11.662;2023-04-19T01:33:23;12.30;79.10
31379;DHT22;61664;48.112;11.662;2023-04-19T01:36:08;12.30;79.10
31379;DHT22;61664;48.112;11.662;2023-04-19T01:38:35;12.30;79.00
31379;DHT22;61664;48.112;11.662;2023-04-19T01:41:02;12.20;78.90
31379;DHT22;61664;48.112;11.662;2023-04-19T01:43:29;12.20;79.10
31379;DHT22;61664;48.112;11.662;2023-04-19T01:45:56;12.20;79.20
31379;DHT22;61664;48.112;11.662;2023-04-19T01:48:22;12.20;79.30
31379;DHT22;61664;48.112;11.662;2023-04-19T01:50:49;12.20;79.30
31379;DHT22;61664;48.112;11.662;2023-04-19T01:53:16;12.20;79.40
31379;DHT22;61664;48.112;11.662;2023-04-19T01:55:43;12.20;79.80
31379;DHT22;61664;48.112;11.662;2023-04-19T01:58:10;12.20;79.30
31379;DHT22;61664;48.112;11.662;2023-04-19T02:00:36;12.20;79.30
31379;DHT22;61664;48.112;11.662;2023-04-19T02:03:03;12.20;79.40
31379;DHT22;61664;48.112;11.662;2023-04-19T02:05:30;12.20;79.40
31379;DHT22;61664;48.112;11.662;2023-04-19T02:07:57;12.10;79.50
31379;DHT22;61664;48.112;11.662;2023-04-19T02:10:24;12.10;79.60
31379;DHT22;61664;48.112;11.662;2023-04-19T02:12:51;12.20;79.70
31379;DHT22;61664;48.112;11.662;2023-04-19T02:15:18;12.20;79.50
31379;DHT22;61664;48.112;11.662;2023-04-19T02:17:45;12.10;79.50
31379;DHT22;61664;48.112;11.662;2023-04-19T02:20:12;12.10;79.60
31379;DHT22;61664;48.112;11.662;2023-04-19T02:22:39;12.10;79.60
31379;DHT22;61664;48.112;11.662;2023-04-19T02:25:06;12.10;79.80
31379;DHT22;61664;48.112;11.662;2023-04-19T02:27:33;12.10;79.90
31379;DHT22;61664;48.112;11.662;2023-04-19T02:30:00;12.00;79.90
31379;DHT22;61664;48.112;11.662;2023-04-19T02:32:27;12.10;80.10
31379;DHT22;61664;48.112;11.662;2023-04-19T02:34:54;12.10;80.20
31379;DHT22;61664;48.112;11.662;2023-04-19T02:37:21;12.10;80.30
31379;DHT22;61664;48.112;11.662;2023-04-19T02:39:48;12.00;80.30
31379;DHT22;61664;48.112;11.662;2023-04-19T02:42:15;12.00;80.30
31379;DHT22;61664;48.112;11.662;2023-04-19T02:44:41;12.00;80.30
31379;DHT22;61664;48.112;11.662;2023-04-19T02:47:08;12.00;80.30
31379;DHT22;61664;48.112;11.662;2023-04-19T02:49:35;12.00;80.30
31379;DHT22;61664;48.112;11.662;2023-04-19T02:52:06;12.00;80.40
31379;DHT22;61664;48.112;11.662;2023-04-19T02:54:34;12.00;80.40
31379;DHT22;61664;48.112;11.662;2023-04-19T02:57:01;12.00;80.50
31379;DHT22;61664;48.112;11.662;2023-04-19T02:59:28;12.00;80.50
31379;DHT22;61664;48.112;11.662;2023-04-19T03:01:55;12.00;80.60
31379;DHT22;61664;48.112;11.662;2023-04-19T03:04:21;11.90;80.50
31379;DHT22;61664;48.112;11.662;2023-04-19T03:06:49;12.00;80.60
31379;DHT22;61664;48.112;11.662;2023-04-19T03:09:16;11.90;80.60
31379;DHT22;61664;48.112;11.662;2023-04-19T03:11:43;12.00;80.70
31379;DHT22;61664;48.112;11.662;2023-04-19T03:14:10;11.90;80.70
31379;DHT22;61664;48.112;11.662;2023-04-19T03:16:36;11.90;80.80
31379;DHT22;61664;48.112;11.662;2023-04-19T03:19:03;11.90;80.90
31379;DHT22;61664;48.112;11.662;2023-04-19T03:21:30;11.90;80.90
31379;DHT22;61664;48.112;11.662;2023-04-19T03:23:57;11.90;81.00
31379;DHT22;61664;48.112;11.662;2023-04-19T03:26:24;12.00;81.10
31379;DHT22;61664;48.112;11.662;2023-04-19T03:28:51;11.90;81.00
31379;DHT22;61664;48.112;11.662;2023-04-19T03:31:18;11.90;81.00
31379;DHT22;61664;48.112;11.662;2023-04-19T03:33:48;12.00;81.10
31379;DHT22;61664;48.112;11.662;2023-04-19T03:36:16;12.00;81.10
31379;DHT22;61664;48.112;11.662;2023-04-19T03:38:43;11.90;81.10
31379;DHT22;61664;48.112;11.662;2023-04-19T03:41:24;11.90;81.00
31379;DHT22;61664;48.112;11.662;2023-04-19T03:43:52;12.00;79.70
31379;DHT22;61664;48.112;11.662;2023-04-19T03:46:19;11.90;81.10
31379;DHT22;61664;48.112;11.662;2023-04-19T03:48:47;11.90;81.10
31379;DHT22;61664;48.112;11.662;2023-04-19T03:51:13;11.90;81.00
31379;DHT22;61664;48.112;11.662;2023-04-19T03:53:41;11.90;81.00
31379;DHT22;61664;48.112;11.662;2023-04-19T03:56:08;11.90;81.20
31379;DHT22;61664;48.112;11.662;2023-04-19T03:58:35;12.00;81.30
31379;DHT22;61664;48.112;11.662;2023-04-19T04:01:03;11.90;81.40
31379;DHT22;61664;48.112;11.662;2023-04-19T04:03:29;11.90;81.60
31379;DHT22;61664;48.112;11.662;2023-04-19T04:05:57;11.90;81.50
31379;DHT22;61664;48.112;11.662;2023-04-19T04:08:24;11.90;81.40
31379;DHT22;61664;48.112;11.662;2023-04-19T04:10:53;11.90;81.50
31379;DHT22;61664;48.112;11.662;2023-04-19T04:13:20;11.90;81.20
31379;DHT22;61664;48.112;11.662;2023-04-19T04:15:47;11.90;81.70
31379;DHT22;61664;48.112;11.662;2023-04-19T04:18:14;11.90;81.80
31379;DHT22;61664;48.112;11.662;2023-04-19T04:20:42;11.90;81.90
31379;DHT22;61664;48.112;11.662;2023-04-19T04:23:10;11.90;81.80
31379;DHT22;61664;48.112;11.662;2023-04-19T04:25:36;11.90;81.90
31379;DHT22;61664;48.112;11.662;2023-04-19T04:28:05;11.90;81.90
31379;DHT22;61664;48.112;11.662;2023-04-19T04:30:32;11.90;82.10
31379;DHT22;61664;48.112;11.662;2023-04-19T04:32:59;11.90;82.30
31379;DHT22;61664;48.112;11.662;2023-04-19T04:35:26;11.90;82.10
31379;DHT22;61664;48.112;11.662;2023-04-19T04:37:55;11.80;82.10
31379;DHT22;61664;48.112;11.662;2023-04-19T04:40:22;11.90;82.20
31379;DHT22;61664;48.112;11.662;2023-04-19T04:42:49;11.80;82.10
31379;DHT22;61664;48.112;11.662;2023-04-19T04:45:18;11.80;82.10
31379;DHT22;61664;48.112;11.662;2023-04-19T04:47:45;11.80;82.00
31379;DHT22;61664;48.112;11.662;2023-04-19T04:50:12;11.70;82.10
31379;DHT22;61664;48.112;11.662;2023-04-19T04:52:39;11.80;82.30
31379;DHT22;61664;48.112;11.662;2023-04-19T04:55:06;11.70;82.30
31379;DHT22;61664;48.112;11.662;2023-04-19T04:57:33;11.70;82.40
31379;DHT22;61664;48.112;11.662;2023-04-19T05:00:00;11.70;82.70
31379;DHT22;61664;48.112;11.662;2023-04-19T05:02:27;11.70;82.80
31379;DHT22;61664;48.112;11.662;2023-04-19T05:04:54;11.70;82.90
31379;DHT22;61664;48.112;11.662;2023-04-19T05:07:21;11.70;83.10
31379;DHT22;61664;48.112;11.662;2023-04-19T05:09:48;11.70;83.20
31379;DHT22;61664;48.112;11.662;2023-04-19T05:12:14;11.70;83.40
31379;DHT22;61664;48.112;11.662;2023-04-19T05:14:41;11.70;83.70
31379;DHT22;61664;48.112;11.662;2023-04-19T05:17:08;11.70;83.90
31379;DHT22;61664;48.112;11.662;2023-04-19T05:19:35;11.70;83.90
31379;DHT22;61664;48.112;11.662;2023-04-19T05:22:02;11.80;83.90
31379;DHT22;61664;48.112;11.662;2023-04-19T05:24:29;11.70;83.80
31379;DHT22;61664;48.112;11.662;2023-04-19T05:26:56;11.80;83.90
31379;DHT22;61664;48.112;11.662;2023-04-19T05:29:23;11.80;83.90
31379;DHT22;61664;48.112;11.662;2023-04-19T05:31:49;11.80;83.80
31379;DHT22;61664;48.112;11.662;2023-04-19T05:34:17;11.80;83.80
31379;DHT22;61664;48.112;11.662;2023-04-19T05:36:47;11.80;83.60
31379;DHT22;61664;48.112;11.662;2023-04-19T05:39:14;11.80;83.60
31379;DHT22;61664;48.112;11.662;2023-04-19T05:41:42;11.90;83.80
31379;DHT22;61664;48.112;11.662;2023-04-19T05:44:09;11.90;83.70
31379;DHT22;61664;48.112;11.662;2023-04-19T05:46:36;11.90;83.80
31379;DHT22;61664;48.112;11.662;2023-04-19T05:49:03;11.90;83.80
31379;DHT22;61664;48.112;11.662;2023-04-19T05:51:30;11.90;83.80
31379;DHT22;61664;48.112;11.662;2023-04-19T05:53:59;11.90;83.80
31379;DHT22;61664;48.112;11.662;2023-04-19T05:56:26;11.90;83.70
31379;DHT22;61664;48.112;11.662;2023-04-19T05:58:53;11.90;83.90
31379;DHT22;61664;48.112;11.662;2023-04-19T06:01:22;11.90;83.90
31379;DHT22;61664;48.112;11.662;2023-04-19T06:03:49;11.90;83.70
31379;DHT22;61664;48.112;11.662;2023-04-19T06:06:21;11.90;83.50
31379;DHT22;61664;48.112;11.662;2023-04-19T06:08:49;11.90;83.50
31379;DHT22;61664;48.112;11.662;2023-04-19T06:11:20;11.90;83.80
31379;DHT22;61664;48.112;11.662;2023-04-19T06:13:57;11.90;84.00
31379;DHT22;61664;48.112;11.662;2023-04-19T06:16:24;11.90;84.00
31379;DHT22;61664;48.112;11.662;2023-04-19T06:18:51;11.90;83.90
31379;DHT22;61664;48.112;11.662;2023-04-19T06:21:18;11.90;83.80
31379;DHT22;61664;48.112;11.662;2023-04-19T06:23:44;12.00;83.90
31379;DHT22;61664;48.112;11.662;2023-04-19T06:26:11;12.00;83.90
31379;DHT22;61664;48.112;11.662;2023-04-19T06:28:38;12.00;83.70
31379;DHT22;61664;48.112;11.662;2023-04-19T06:31:05;12.00;83.40
31379;DHT22;61664;48.112;11.662;2023-04-19T06:33:32;12.00;83.30
31379;DHT22;61664;48.112;11.662;2023-04-19T06:36:00;12.00;83.50
31379;DHT22;61664;48.112;11.662;2023-04-19T06:38:28;12.00;83.40
31379;DHT22;61664;48.112;11.662;2023-04-19T06:40:55;12.00;83.40
31379;DHT22;61664;48.112;11.662;2023-04-19T06:43:23;11.90;83.30
31379;DHT22;61664;48.112;11.662;2023-04-19T06:45:59;11.90;83.30
31379;DHT22;61664;48.112;11.662;2023-04-19T06:48:27;11.90;82.70
31379;DHT22;61664;48.112;11.662;2023-04-19T06:50:54;11.90;84.10
31379;DHT22;61664;48.112;11.662;2023-04-19T06:53:22;11.90;83.70
31379;DHT22;61664;48.112;11.662;2023-04-19T06:55:56;11.90;83.90
31379;DHT22;61664;48.112;11.662;2023-04-19T06:58:24;11.90;83.60
31379;DHT22;61664;48.112;11.662;2023-04-19T07:00:51;12.00;84.20
31379;DHT22;61664;48.112;11.662;2023-04-19T07:03:19;12.00;84.10
31379;DHT22;61664;48.112;11.662;2023-04-19T07:05:47;12.00;84.10
31379;DHT22;61664;48.112;11.662;2023-04-19T07:08:15;12.00;84.10
31379;DHT22;61664;48.112;11.662;2023-04-19T07:10:41;12.10;84.10
31379;DHT22;61664;48.112;11.662;2023-04-19T07:13:12;12.00;84.30
31379;DHT22;61664;48.112;11.662;2023-04-19T07:15:39;12.00;84.00
31379;DHT22;61664;48.112;11.662;2023-04-19T07:18:06;12.10;84.40
31379;DHT22;61664;48.112;11.662;2023-04-19T07:20:33;12.10;84.40
31379;DHT22;61664;48.112;11.662;2023-04-19T07:23:00;12.10;84.40
31379;DHT22;61664;48.112;11.662;2023-04-19T07:25:27;12.20;84.30
31379;DHT22;61664;48.112;11.662;2023-04-19T07:27:54;12.20;84.30
31379;DHT22;61664;48.112;11.662;2023-04-19T07:30:22;12.20;84.10
31379;DHT22;61664;48.112;11.662;2023-04-19T07:32:49;12.20;84.00
31379;DHT22;61664;48.112;11.662;2023-04-19T07:35:17;12.20;83.90
31379;DHT22;61664;48.112;11.662;2023-04-19T07:37:45;12.20;83.80
31379;DHT22;61664;48.112;11.662;2023-04-19T07:40:12;12.20;84.00
31379;DHT22;61664;48.112;11.662;2023-04-19T07:42:39;12.30;84.40
31379;DHT22;61664;48.112;11.662;2023-04-19T07:45:06;12.30;84.50
31379;DHT22;61664;48.112;11.662;2023-04-19T07:47:34;12.30;84.80
31379;DHT22;61664;48.112;11.662;2023-04-19T07:50:01;12.30;85.10
31379;DHT22;61664;48.112;11.662;2023-04-19T07:52:29;12.40;85.10
31379;DHT22;61664;48.112;11.662;2023-04-19T07:54:55;12.40;85.70
31379;DHT22;61664;48.112;11.662;2023-04-19T07:57:23;12.60;86.20
31379;DHT22;61664;48.112;11.662;2023-04-19T07:59:49;12.60;86.00
31379;DHT22;61664;48.112;11.662;2023-04-19T08:02:16;12.70;86.70
31379;DHT22;61664;48.112;11.662;2023-04-19T08:04:44;12.80;87.50
31379;DHT22;61664;48.112;11.662;2023-04-19T08:07:14;13.00;88.20
31379;DHT22;61664;48.112;11.662;2023-04-19T08:09:41;13.20;88.80
31379;DHT22;61664;48.112;11.662;2023-04-19T08:12:08;13.30;88.60
31379;DHT22;61664;48.112;11.662;2023-04-19T08:14:40;13.50;87.50
31379;DHT22;61664;48.112;11.662;2023-04-19T08:17:25;13.60;87.00
31379;DHT22;61664;48.112;11.662;2023-04-19T08:20:02;13.80;86.90
31379;DHT22;61664;48.112;11.662;2023-04-19T08:22:32;13.90;86.70
31379;DHT22;61664;48.112;11.662;2023-04-19T08:24:59;14.00;85.60
31379;DHT22;61664;48.112;11.662;2023-04-19T08:27:25;14.10;85.60
31379;DHT22;61664;48.112;11.662;2023-04-19T08:29:52;14.20;86.00
31379;DHT22;61664;48.112;11.662;2023-04-19T08:32:19;14.40;86.70
31379;DHT22;61664;48.112;11.662;2023-04-19T08:34:46;14.50;87.20
31379;DHT22;61664;48.112;11.662;2023-04-19T08:37:13;14.70;87.50
31379;DHT22;61664;48.112;11.662;2023-04-19T08:39:40;14.80;87.30
31379;DHT22;61664;48.112;11.662;2023-04-19T08:42:08;15.00;86.70
31379;DHT22;61664;48.112;11.662;2023-04-19T08:44:55;15.10;85.50
31379;DHT22;61664;48.112;11.662;2023-04-19T08:47:33;15.30;83.60
31379;DHT22;61664;48.112;11.662;2023-04-19T08:50:10;15.40;82.50
31379;DHT22;61664;48.112;11.662;2023-04-19T08:52:43;15.40;81.50
31379;DHT22;61664;48.112;11.662;2023-04-19T08:55:25;15.40;81.70
31379;DHT22;61664;48.112;11.662;2023-04-19T08:57:54;15.40;81.50
31379;DHT22;61664;48.112;11.662;2023-04-19T09:00:22;15.30;80.90
31379;DHT22;61664;48.112;11.662;2023-04-19T09:02:50;15.30;81.20
31379;DHT22;61664;48.112;11.662;2023-04-19T09:05:19;15.30;80.80
31379;DHT22;61664;48.112;11.662;2023-04-19T09:07:47;15.30;81.20
31379;DHT22;61664;48.112;11.662;2023-04-19T09:10:17;15.20;81.10
31379;DHT22;61664;48.112;11.662;2023-04-19T09:13:03;15.20;79.80
31379;DHT22;61664;48.112;11.662;2023-04-19T09:15:39;15.20;75.40
31379;DHT22;61664;48.112;11.662;2023-04-19T09:18:08;15.20;77.80
31379;DHT22;61664;48.112;11.662;2023-04-19T09:23:05;15.00;79.00
31379;DHT22;61664;48.112;11.662;2023-04-19T09:25:57;15.00;79.00
31379;DHT22;61664;48.112;11.662;2023-04-19T09:28:30;14.90;73.70
31379;DHT22;61664;48.112;11.662;2023-04-19T09:30:58;14.80;78.90
31379;DHT22;61664;48.112;11.662;2023-04-19T09:34:16;14.70;79.10
31379;DHT22;61664;48.112;11.662;2023-04-19T09:36:44;14.70;74.30
31379;DHT22;61664;48.112;11.662;2023-04-19T09:39:12;14.70;81.10
31379;DHT22;61664;48.112;11.662;2023-04-19T09:41:53;14.70;81.40
31379;DHT22;61664;48.112;11.662;2023-04-19T09:44:20;14.80;78.00
31379;DHT22;61664;48.112;11.662;2023-04-19T09:47:21;14.90;83.10
31379;DHT22;61664;48.112;11.662;2023-04-19T09:50:08;15.10;77.00
31379;DHT22;61664;48.112;11.662;2023-04-19T09:52:51;15.30;77.00
31379;DHT22;61664;48.112;11.662;2023-04-19T09:55:18;15.60;72.40
31379;DHT22;61664;48.112;11.662;2023-04-19T09:57:48;15.90;88.30
31379;DHT22;61664;48.112;11.662;2023-04-19T10:00:15;16.30;87.50
31379;DHT22;61664;48.112;11.662;2023-04-19T10:02:44;16.60;84.80
31379;DHT22;61664;48.112;11.662;2023-04-19T10:05:18;16.70;80.80
31379;DHT22;61664;48.112;11.662;2023-04-19T10:07:48;16.80;79.40
31379;DHT22;61664;48.112;11.662;2023-04-19T10:10:16;16.80;77.30
31379;DHT22;61664;48.112;11.662;2023-04-19T10:12:51;16.80;77.10
31379;DHT22;61664;48.112;11.662;2023-04-19T10:15:23;16.70;75.20
31379;DHT22;61664;48.112;11.662;2023-04-19T10:17:55;16.60;76.50
31379;DHT22;61664;48.112;11.662;2023-04-19T10:20:26;16.60;77.20
31379;DHT22;61664;48.112;11.662;2023-04-19T10:22:59;16.50;75.60
31379;DHT22;61664;48.112;11.662;2023-04-19T10:25:29;16.50;76.90
31379;DHT22;61664;48.112;11.662;2023-04-19T10:27:57;16.50;75.30
31379;DHT22;61664;48.112;11.662;2023-04-19T10:30:24;16.40;77.10
31379;DHT22;61664;48.112;11.662;2023-04-19T10:32:55;16.30;76.70
31379;DHT22;61664;48.112;11.662;2023-04-19T10:35:43;16.30;72.30
31379;DHT22;61664;48.112;11.662;2023-04-19T10:38:12;16.20;71.20
31379;DHT22;61664;48.112;11.662;2023-04-19T10:43:24;16.00;73.10
31379;DHT22;61664;48.112;11.662;2023-04-19T10:48:38;15.70;73.30
31379;DHT22;61664;48.112;11.662;2023-04-19T10:51:13;15.70;75.10
31379;DHT22;61664;48.112;11.662;2023-04-19T10:53:57;15.60;75.70
31379;DHT22;61664;48.112;11.662;2023-04-19T11:01:38;15.30;77.20
31379;DHT22;61664;48.112;11.662;2023-04-19T11:04:56;15.20;76.40
31379;DHT22;61664;48.112;11.662;2023-04-19T11:07:25;15.10;73.20
31379;DHT22;61664;48.112;11.662;2023-04-19T11:09:52;15.00;77.90
31379;DHT22;61664;48.112;11.662;2023-04-19T11:12:20;15.00;77.90
31379;DHT22;61664;48.112;11.662;2023-04-19T11:14:56;15.00;77.90
31379;DHT22;61664;48.112;11.662;2023-04-19T11:17:30;14.90;77.70
31379;DHT22;61664;48.112;11.662;2023-04-19T11:19:58;14.80;75.90
31379;DHT22;61664;48.112;11.662;2023-04-19T11:22:34;14.80;77.80
31379;DHT22;61664;48.112;11.662;2023-04-19T11:25:06;14.70;76.60
31379;DHT22;61664;48.112;11.662;2023-04-19T11:27:34;14.70;77.00
31379;DHT22;61664;48.112;11.662;2023-04-19T11:30:06;14.70;78.20
31379;DHT22;61664;48.112;11.662;2023-04-19T11:32:35;14.60;76.80
31379;DHT22;61664;48.112;11.662;2023-04-19T11:35:06;14.50;78.10
31379;DHT22;61664;48.112;11.662;2023-04-19T11:37:36;14.50;78.10
31379;DHT22;61664;48.112;11.662;2023-04-19T11:40:05;14.50;78.00
31379;DHT22;61664;48.112;11.662;2023-04-19T11:42:33;14.40;77.30
31379;DHT22;61664;48.112;11.662;2023-04-19T11:45:00;14.30;77.30
31379;DHT22;61664;48.112;11.662;2023-04-19T11:47:27;14.20;77.50
31379;DHT22;61664;48.112;11.662;2023-04-19T11:49:54;14.10;77.70
31379;DHT22;61664;48.112;11.662;2023-04-19T11:52:24;14.10;77.80
31379;DHT22;61664;48.112;11.662;2023-04-19T11:54:52;14.00;77.80
31379;DHT22;61664;48.112;11.662;2023-04-19T11:57:27;13.90;78.60
31379;DHT22;61664;48.112;11.662;2023-04-19T12:00:08;13.80;77.10
31379;DHT22;61664;48.112;11.662;2023-04-19T12:02:39;13.80;76.40
31379;DHT22;61664;48.112;11.662;2023-04-19T12:05:12;13.70;79.00
31379;DHT22;61664;48.112;11.662;2023-04-19T12:07:59;13.70;79.00
31379;DHT22;61664;48.112;11.662;2023-04-19T12:10:29;13.70;77.60
31379;DHT22;61664;48.112;11.662;2023-04-19T12:12:57;13.70;80.60
31379;DHT22;61664;48.112;11.662;2023-04-19T12:15:44;13.60;80.60
31379;DHT22;61664;48.112;11.662;2023-04-19T12:18:12;13.60;78.10
31379;DHT22;61664;48.112;11.662;2023-04-19T12:20:44;13.60;80.80
31379;DHT22;61664;48.112;11.662;2023-04-19T12:23:13;13.60;79.90
31379;DHT22;61664;48.112;11.662;2023-04-19T12:25:43;13.50;80.50
31379;DHT22;61664;48.112;11.662;2023-04-19T12:28:12;13.50;80.60
31379;DHT22;61664;48.112;11.662;2023-04-19T12:30:41;13.50;80.90
31379;DHT22;61664;48.112;11.662;2023-04-19T12:33:08;13.40;81.30
31379;DHT22;61664;48.112;11.662;2023-04-19T12:35:35;13.40;81.70
31379;DHT22;61664;48.112;11.662;2023-04-19T12:38:04;13.40;81.20
31379;DHT22;61664;48.112;11.662;2023-04-19T12:40:31;13.40;80.70
31379;DHT22;61664;48.112;11.662;2023-04-19T12:42:58;13.30;80.50
31379;DHT22;61664;48.112;11.662;2023-04-19T12:45:25;13.20;80.40
31379;DHT22;61664;48.112;11.662;2023-04-19T12:47:52;13.20;80.20
31379;DHT22;61664;48.112;11.662;2023-04-19T12:50:19;13.20;80.60
31379;DHT22;61664;48.112;11.662;2023-04-19T12:52:46;13.10;80.90
31379;DHT22;61664;48.112;11.662;2023-04-19T12:55:13;13.00;81.50
31379;DHT22;61664;48.112;11.662;2023-04-19T12:57:40;13.00;81.70
31379;DHT22;61664;48.112;11.662;2023-04-19T13:00:08;13.00;81.60
31379;DHT22;61664;48.112;11.662;2023-04-19T13:02:36;13.00;81.90
31379;DHT22;61664;48.112;11.662;2023-04-19T13:05:04;12.90;81.60
31379;DHT22;61664;48.112;11.662;2023-04-19T13:07:32;12.90;81.80
31379;DHT22;61664;48.112;11.662;2023-04-19T13:09:59;12.90;82.10
31379;DHT22;61664;48.112;11.662;2023-04-19T13:12:27;12.80;82.30
31379;DHT22;61664;48.112;11.662;2023-04-19T13:14:54;12.80;82.50
31379;DHT22;61664;48.112;11.662;2023-04-19T13:17:21;12.80;82.50
31379;DHT22;61664;48.112;11.662;2023-04-19T13:19:47;12.80;82.60
31379;DHT22;61664;48.112;11.662;2023-04-19T13:22:14;12.80;82.90
31379;DHT22;61664;48.112;11.662;2023-04-19T13:24:41;12.80;82.80
31379;DHT22;61664;48.112;11.662;2023-04-19T13:27:08;12.80;82.90
31379;DHT22;61664;48.112;11.662;2023-04-19T13:29:35;12.80;83.20
31379;DHT22;61664;48.112;11.662;2023-04-19T13:32:03;12.80;83.00
31379;DHT22;61664;48.112;11.662;2023-04-19T13:34:33;12.80;83.10
31379;DHT22;61664;48.112;11.662;2023-04-19T13:37:00;12.80;83.20
31379;DHT22;61664;48.112;11.662;2023-04-19T13:39:27;12.80;83.30
31379;DHT22;61664;48.112;11.662;2023-04-19T13:41:54;12.80;83.40
31379;DHT22;61664;48.112;11.662;2023-04-19T13:44:21;12.80;83.50
31379;DHT22;61664;48.112;11.662;2023-04-19T13:46:48;12.90;83.90
31379;DHT22;61664;48.112;11.662;2023-04-19T13:49:16;12.90;83.60
31379;DHT22;61664;48.112;11.662;2023-04-19T13:51:44;12.90;83.60
31379;DHT22;61664;48.112;11.662;2023-04-19T13:54:17;12.90;83.50
31379;DHT22;61664;48.112;11.662;2023-04-19T13:56:45;12.80;83.40
31379;DHT22;61664;48.112;11.662;2023-04-19T13:59:16;12.80;83.20
31379;DHT22;61664;48.112;11.662;2023-04-19T14:01:43;12.80;82.90
31379;DHT22;61664;48.112;11.662;2023-04-19T14:04:10;12.80;82.80
31379;DHT22;61664;48.112;11.662;2023-04-19T14:06:37;12.80;82.90
31379;DHT22;61664;48.112;11.662;2023-04-19T14:09:04;12.70;82.60
31379;DHT22;61664;48.112;11.662;2023-04-19T14:11:32;12.70;82.10
31379;DHT22;61664;48.112;11.662;2023-04-19T14:14:00;12.70;81.30
31379;DHT22;61664;48.112;11.662;2023-04-19T14:16:26;12.60;80.80
31379;DHT22;61664;48.112;11.662;2023-04-19T14:18:53;12.50;80.80
31379;DHT22;61664;48.112;11.662;2023-04-19T14:21:20;12.40;80.70
31379;DHT22;61664;48.112;11.662;2023-04-19T14:23:47;12.30;80.40
31379;DHT22;61664;48.112;11.662;2023-04-19T14:26:14;12.20;80.30
31379;DHT22;61664;48.112;11.662;2023-04-19T14:28:41;12.10;80.30
31379;DHT22;61664;48.112;11.662;2023-04-19T14:31:08;11.90;80.70
31379;DHT22;61664;48.112;11.662;2023-04-19T14:33:35;11.80;80.70
31379;DHT22;61664;48.112;11.662;2023-04-19T14:36:02;11.70;80.70
31379;DHT22;61664;48.112;11.662;2023-04-19T14:38:29;11.70;80.80
31379;DHT22;61664;48.112;11.662;2023-04-19T14:40:56;11.60;80.70
31379;DHT22;61664;48.112;11.662;2023-04-19T14:43:23;11.50;81.20
31379;DHT22;61664;48.112;11.662;2023-04-19T14:45:50;11.40;81.70
31379;DHT22;61664;48.112;11.662;2023-04-19T14:48:18;11.40;82.30
31379;DHT22;61664;48.112;11.662;2023-04-19T14:50:48;11.30;82.40
31379;DHT22;61664;48.112;11.662;2023-04-19T14:53:14;11.30;82.30
31379;DHT22;61664;48.112;11.662;2023-04-19T14:55:41;11.30;82.30
31379;DHT22;61664;48.112;11.662;2023-04-19T14:58:08;11.20;82.30
31379;DHT22;61664;48.112;11.662;2023-04-19T15:00:35;11.20;81.80
31379;DHT22;61664;48.112;11.662;2023-04-19T15:03:02;11.10;81.60
31379;DHT22;61664;48.112;11.662;2023-04-19T15:05:29;11.10;81.60
31379;DHT22;61664;48.112;11.662;2023-04-19T15:08:00;11.00;81.10
31379;DHT22;61664;48.112;11.662;2023-04-19T15:10:27;11.00;78.10
31379;DHT22;61664;48.112;11.662;2023-04-19T15:12:54;10.90;80.60
31379;DHT22;61664;48.112;11.662;2023-04-19T15:15:21;10.70;80.50
31379;DHT22;61664;48.112;11.662;2023-04-19T15:17:48;10.60;80.50
31379;DHT22;61664;48.112;11.662;2023-04-19T15:20:15;10.50;80.20
31379;DHT22;61664;48.112;11.662;2023-04-19T15:22:42;10.40;80.70
31379;DHT22;61664;48.112;11.662;2023-04-19T15:25:09;10.40;81.30
31379;DHT22;61664;48.112;11.662;2023-04-19T15:27:36;10.30;81.20
31379;DHT22;61664;48.112;11.662;2023-04-19T15:30:04;10.30;81.50
31379;DHT22;61664;48.112;11.662;2023-04-19T15:32:31;10.20;81.90
31379;DHT22;61664;48.112;11.662;2023-04-19T15:34:59;10.10;82.30
31379;DHT22;61664;48.112;11.662;2023-04-19T15:37:26;10.10;82.60